sensor_id;sensor_type;location;lat;lon;timestamp;pressure;altitude;pressure_sealevel;temperature;humidity
22020;BME280;51298;53.362;-1.518;2024-01-15T00:00:21;98796.88;;;-1.19;68.63
22020;BME280;51298;53.362;-1.518;2024-01-15T00:02:55;98795.34;;;-1.22;69.27
22020;BME280;51298;53.362;-1.518;2024-01-15T00:05:41;98807.41;;;-1.24;68.76
22020;BME280;51298;53.362;-1.518;2024-01-15T00:08:13;98792.53;;;-1.32;70.07
22020;BME280;51298;53.362;-1.518;2024-01-15T00:10:59;98793.91;;;-1.26;69.53
22020;BME280;51298;53.362;-1.518;2024-01-15T00:13:31;98794.91;;;-1.29;69.52
22020;BME280;51298;53.362;-1.518;2024-01-15T00:16:19;98796.13;;;-1.34;70.40
22020;BME280;51298;53.362;-1.518;2024-01-15T00:18:52;98784.44;;;-1.38;70.05
22020;BME280;51298;53.362;-1.518;2024-01-15T00:21:38;98783.69;;;-1.40;70.55
22020;BME280;51298;53.362;-1.518;2024-01-15T00:24:11;98787.72;;;-1.51;71.28
22020;BME280;51298;53.362;-1.518;2024-01-15T00:26:57;98783.16;;;-1.45;71.45
22020;BME280;51298;53.362;-1.518;2024-01-15T00:29:30;98779.84;;;-1.48;71.49
22020;BME280;51298;53.362;-1.518;2024-01-15T00:32:19;98777.81;;;-1.42;71.33
22020;BME280;51298;53.362;-1.518;2024-01-15T00:34:52;98771.69;;;-1.40;70.89
22020;BME280;51298;53.362;-1.518;2024-01-15T00:37:40;98768.91;;;-1.50;71.24
22020;BME280;51298;53.362;-1.518;2024-01-15T00:40:12;98766.59;;;-1.54;71.80
22020;BME280;51298;53.362;-1.518;2024-01-15T00:43:00;98762.22;;;-1.52;71.21
22020;BME280;51298;53.362;-1.518;2024-01-15T00:45:33;98761.41;;;-1.53;71.63
22020;BME280;51298;53.362;-1.518;2024-01-15T00:48:20;98753.09;;;-1.56;71.57
22020;BME280;51298;53.362;-1.518;2024-01-15T00:50:53;98748.41;;;-1.50;71.15
22020;BME280;51298;53.362;-1.518;2024-01-15T00:53:40;98754.25;;;-1.48;70.34
22020;BME280;51298;53.362;-1.518;2024-01-15T00:56:14;98748.69;;;-1.54;71.45
22020;BME280;51298;53.362;-1.518;2024-01-15T00:59:01;98741.94;;;-1.55;70.98
22020;BME280;51298;53.362;-1.518;2024-01-15T01:01:35;98739.78;;;-1.61;71.05
22020;BME280;51298;53.362;-1.518;2024-01-15T01:04:25;98733.25;;;-1.53;69.99
22020;BME280;51298;53.362;-1.518;2024-01-15T01:06:59;98737.63;;;-1.55;70.17
22020;BME280;51298;53.362;-1.518;2024-01-15T01:09:45;98734.44;;;-1.58;70.34
22020;BME280;51298;53.362;-1.518;2024-01-15T01:12:19;98742.75;;;-1.55;69.63
22020;BME280;51298;53.362;-1.518;2024-01-15T01:15:05;98740.59;;;-1.61;69.52
22020;BME280;51298;53.362;-1.518;2024-01-15T01:17:39;98741.06;;;-1.68;69.83
22020;BME280;51298;53.362;-1.518;2024-01-15T01:20:25;98749.28;;;-1.63;69.38
22020;BME280;51298;53.362;-1.518;2024-01-15T01:22:58;98759.31;;;-1.60;69.27
22020;BME280;51298;53.362;-1.518;2024-01-15T01:25:45;98758.16;;;-1.69;69.43
22020;BME280;51298;53.362;-1.518;2024-01-15T01:28:17;98750.38;;;-1.67;69.52
22020;BME280;51298;53.362;-1.518;2024-01-15T01:31:05;98763.00;;;-1.64;69.86
22020;BME280;51298;53.362;-1.518;2024-01-15T01:33:39;98749.00;;;-1.73;69.73
22020;BME280;51298;53.362;-1.518;2024-01-15T01:36:26;98753.13;;;-1.70;69.73
22020;BME280;51298;53.362;-1.518;2024-01-15T01:38:59;98750.22;;;-1.79;69.62
22020;BME280;51298;53.362;-1.518;2024-01-15T01:41:45;98738.75;;;-1.73;69.32
22020;BME280;51298;53.362;-1.518;2024-01-15T01:44:18;98733.75;;;-1.75;69.32
22020;BME280;51298;53.362;-1.518;2024-01-15T01:47:06;98736.03;;;-1.70;69.17
22020;BME280;51298;53.362;-1.518;2024-01-15T01:49:40;98733.13;;;-1.78;69.38
22020;BME280;51298;53.362;-1.518;2024-01-15T01:52:27;98729.56;;;-1.76;69.39
22020;BME280;51298;53.362;-1.518;2024-01-15T01:55:02;98725.38;;;-1.77;68.96
22020;BME280;51298;53.362;-1.518;2024-01-15T01:57:49;98730.81;;;-1.68;68.41
22020;BME280;51298;53.362;-1.518;2024-01-15T02:00:23;98736.03;;;-1.70;68.25
22020;BME280;51298;53.362;-1.518;2024-01-15T02:03:10;98732.13;;;-1.76;68.96
22020;BME280;51298;53.362;-1.518;2024-01-15T02:05:43;98734.38;;;-1.71;68.39
22020;BME280;51298;53.362;-1.518;2024-01-15T02:08:29;98731.94;;;-1.73;68.59
22020;BME280;51298;53.362;-1.518;2024-01-15T02:11:03;98729.28;;;-1.71;68.65
22020;BME280;51298;53.362;-1.518;2024-01-15T02:13:50;98728.28;;;-1.83;69.18
22020;BME280;51298;53.362;-1.518;2024-01-15T02:16:22;98720.09;;;-1.88;69.43
22020;BME280;51298;53.362;-1.518;2024-01-15T02:19:16;98721.81;;;-1.88;69.07
22020;BME280;51298;53.362;-1.518;2024-01-15T02:21:49;98728.94;;;-1.93;69.07
22020;BME280;51298;53.362;-1.518;2024-01-15T02:24:38;98727.03;;;-1.90;68.97
22020;BME280;51298;53.362;-1.518;2024-01-15T02:27:11;98736.09;;;-1.99;68.76
22020;BME280;51298;53.362;-1.518;2024-01-15T02:29:58;98745.88;;;-2.05;69.82
22020;BME280;51298;53.362;-1.518;2024-01-15T02:32:32;98746.34;;;-2.13;69.81
22020;BME280;51298;53.362;-1.518;2024-01-15T02:35:18;98737.84;;;-2.13;70.15
22020;BME280;51298;53.362;-1.518;2024-01-15T02:37:52;98738.13;;;-2.18;69.83
22020;BME280;51298;53.362;-1.518;2024-01-15T02:40:39;98738.94;;;-2.17;70.28
22020;BME280;51298;53.362;-1.518;2024-01-15T02:43:12;98739.94;;;-2.20;69.81
22020;BME280;51298;53.362;-1.518;2024-01-15T02:45:58;98738.22;;;-2.19;69.40
22020;BME280;51298;53.362;-1.518;2024-01-15T02:48:30;98731.84;;;-2.27;70.26
22020;BME280;51298;53.362;-1.518;2024-01-15T02:51:17;98735.47;;;-2.31;70.18
22020;BME280;51298;53.362;-1.518;2024-01-15T02:53:50;98726.63;;;-2.25;69.78
22020;BME280;51298;53.362;-1.518;2024-01-15T02:56:37;98720.75;;;-2.27;69.61
22020;BME280;51298;53.362;-1.518;2024-01-15T02:59:10;98715.66;;;-2.27;69.86
22020;BME280;51298;53.362;-1.518;2024-01-15T03:01:56;98711.47;;;-2.28;69.81
22020;BME280;51298;53.362;-1.518;2024-01-15T03:04:28;98713.91;;;-2.12;68.88
22020;BME280;51298;53.362;-1.518;2024-01-15T03:07:16;98715.47;;;-2.10;68.82
22020;BME280;51298;53.362;-1.518;2024-01-15T03:09:48;98717.03;;;-2.07;68.68
22020;BME280;51298;53.362;-1.518;2024-01-15T03:12:36;98705.00;;;-1.92;67.58
22020;BME280;51298;53.362;-1.518;2024-01-15T03:15:09;98701.53;;;-1.91;67.78
22020;BME280;51298;53.362;-1.518;2024-01-15T03:17:55;98707.28;;;-1.88;67.55
22020;BME280;51298;53.362;-1.518;2024-01-15T03:20:28;98699.66;;;-1.75;66.17
22020;BME280;51298;53.362;-1.518;2024-01-15T03:23:16;98697.28;;;-1.78;67.05
22020;BME280;51298;53.362;-1.518;2024-01-15T03:25:49;98698.84;;;-1.76;66.71
22020;BME280;51298;53.362;-1.518;2024-01-15T03:28:36;98696.56;;;-1.80;66.73
22020;BME280;51298;53.362;-1.518;2024-01-15T03:31:09;98713.66;;;-1.81;66.69
22020;BME280;51298;53.362;-1.518;2024-01-15T03:33:55;98690.13;;;-1.73;66.69
22020;BME280;51298;53.362;-1.518;2024-01-15T03:36:28;98704.09;;;-1.64;66.00
22020;BME280;51298;53.362;-1.518;2024-01-15T03:39:15;98686.00;;;-1.61;66.07
22020;BME280;51298;53.362;-1.518;2024-01-15T03:41:48;98683.44;;;-1.61;65.14
22020;BME280;51298;53.362;-1.518;2024-01-15T03:44:36;98678.09;;;-1.58;65.22
22020;BME280;51298;53.362;-1.518;2024-01-15T03:47:09;98680.56;;;-1.57;65.01
22020;BME280;51298;53.362;-1.518;2024-01-15T03:49:56;98672.81;;;-1.42;64.14
22020;BME280;51298;53.362;-1.518;2024-01-15T03:52:29;98677.22;;;-1.44;64.54
22020;BME280;51298;53.362;-1.518;2024-01-15T03:55:15;98675.59;;;-1.45;63.94
22020;BME280;51298;53.362;-1.518;2024-01-15T03:57:48;98674.66;;;-1.44;64.30
22020;BME280;51298;53.362;-1.518;2024-01-15T04:00:36;98673.03;;;-1.45;64.10
22020;BME280;51298;53.362;-1.518;2024-01-15T04:03:10;98687.28;;;-1.41;63.71
22020;BME280;51298;53.362;-1.518;2024-01-15T04:05:56;98683.69;;;-1.39;63.58
22020;BME280;51298;53.362;-1.518;2024-01-15T04:08:30;98681.75;;;-1.35;63.87
22020;BME280;51298;53.362;-1.518;2024-01-15T04:11:17;98681.56;;;-1.32;63.72
22020;BME280;51298;53.362;-1.518;2024-01-15T04:13:49;98676.00;;;-1.39;63.92
22020;BME280;51298;53.362;-1.518;2024-01-15T04:16:37;98672.41;;;-1.36;63.69
22020;BME280;51298;53.362;-1.518;2024-01-15T04:19:11;98676.09;;;-1.40;63.90
22020;BME280;51298;53.362;-1.518;2024-01-15T04:21:58;98669.72;;;-1.48;63.59
22020;BME280;51298;53.362;-1.518;2024-01-15T04:24:34;98670.72;;;-1.63;64.84
22020;BME280;51298;53.362;-1.518;2024-01-15T04:27:21;98667.81;;;-1.71;65.05
22020;BME280;51298;53.362;-1.518;2024-01-15T04:29:54;98670.97;;;-1.80;65.33
22020;BME280;51298;53.362;-1.518;2024-01-15T04:32:41;98664.19;;;-1.81;65.46
22020;BME280;51298;53.362;-1.518;2024-01-15T04:35:13;98661.16;;;-1.74;65.43
22020;BME280;51298;53.362;-1.518;2024-01-15T04:38:01;98658.19;;;-1.80;65.21
22020;BME280;51298;53.362;-1.518;2024-01-15T04:40:34;98662.66;;;-1.84;65.37
22020;BME280;51298;53.362;-1.518;2024-01-15T04:43:20;98656.28;;;-1.91;65.68
22020;BME280;51298;53.362;-1.518;2024-01-15T04:45:52;98662.59;;;-1.97;65.88
22020;BME280;51298;53.362;-1.518;2024-01-15T04:48:40;98667.00;;;-1.99;66.06
22020;BME280;51298;53.362;-1.518;2024-01-15T04:51:12;98671.03;;;-2.09;66.96
22020;BME280;51298;53.362;-1.518;2024-01-15T04:53:59;98662.72;;;-2.12;66.48
22020;BME280;51298;53.362;-1.518;2024-01-15T04:56:32;98661.09;;;-2.13;66.75
22020;BME280;51298;53.362;-1.518;2024-01-15T04:59:18;98658.00;;;-2.18;66.89
22020;BME280;51298;53.362;-1.518;2024-01-15T05:01:51;98672.06;;;-2.11;68.05
22020;BME280;51298;53.362;-1.518;2024-01-15T05:04:37;98653.56;;;-2.02;67.91
22020;BME280;51298;53.362;-1.518;2024-01-15T05:07:09;98655.13;;;-2.00;67.59
22020;BME280;51298;53.362;-1.518;2024-01-15T05:09:56;98644.41;;;-1.92;68.74
22020;BME280;51298;53.362;-1.518;2024-01-15T05:12:28;98655.88;;;-1.85;67.41
22020;BME280;51298;53.362;-1.518;2024-01-15T05:15:16;98659.63;;;-1.76;66.54
22020;BME280;51298;53.362;-1.518;2024-01-15T05:17:48;98668.63;;;-1.70;66.80
22020;BME280;51298;53.362;-1.518;2024-01-15T05:20:35;98677.47;;;-1.62;66.97
22020;BME280;51298;53.362;-1.518;2024-01-15T05:23:12;98660.97;;;-1.70;67.11
22020;BME280;51298;53.362;-1.518;2024-01-15T05:25:59;98665.06;;;-1.68;67.42
22020;BME280;51298;53.362;-1.518;2024-01-15T05:28:33;98672.84;;;-1.69;67.61
22020;BME280;51298;53.362;-1.518;2024-01-15T05:31:19;98669.38;;;-1.68;67.50
22020;BME280;51298;53.362;-1.518;2024-01-15T05:33:52;98672.34;;;-1.62;67.00
22020;BME280;51298;53.362;-1.518;2024-01-15T05:36:39;98674.06;;;-1.75;68.49
22020;BME280;51298;53.362;-1.518;2024-01-15T05:39:12;98675.06;;;-1.78;67.53
22020;BME280;51298;53.362;-1.518;2024-01-15T05:41:58;98674.06;;;-1.75;67.72
22020;BME280;51298;53.362;-1.518;2024-01-15T05:44:33;98675.31;;;-1.68;66.42
22020;BME280;51298;53.362;-1.518;2024-01-15T05:47:19;98685.56;;;-1.68;66.13
22020;BME280;51298;53.362;-1.518;2024-01-15T05:49:52;98682.41;;;-1.59;65.84
22020;BME280;51298;53.362;-1.518;2024-01-15T05:52:39;98687.09;;;-1.65;66.02
22020;BME280;51298;53.362;-1.518;2024-01-15T05:55:12;98688.94;;;-1.67;65.65
22020;BME280;51298;53.362;-1.518;2024-01-15T05:57:59;98688.75;;;-1.64;65.79
22020;BME280;51298;53.362;-1.518;2024-01-15T06:01:05;98695.06;;;-1.70;66.01
22020;BME280;51298;53.362;-1.518;2024-01-15T06:03:52;98689.22;;;-1.72;66.19
22020;BME280;51298;53.362;-1.518;2024-01-15T06:06:31;98692.59;;;-1.72;66.79
22020;BME280;51298;53.362;-1.518;2024-01-15T06:09:18;98701.22;;;-1.73;66.88
22020;BME280;51298;53.362;-1.518;2024-01-15T06:11:51;98693.53;;;-1.73;66.78
22020;BME280;51298;53.362;-1.518;2024-01-15T06:14:36;98691.47;;;-1.80;67.58
22020;BME280;51298;53.362;-1.518;2024-01-15T06:17:09;98685.72;;;-1.84;67.66
22020;BME280;51298;53.362;-1.518;2024-01-15T06:19:57;98691.63;;;-1.83;67.30
22020;BME280;51298;53.362;-1.518;2024-01-15T06:22:30;98695.22;;;-2.00;68.14
22020;BME280;51298;53.362;-1.518;2024-01-15T06:25:17;98694.03;;;-1.94;68.14
22020;BME280;51298;53.362;-1.518;2024-01-15T06:27:52;98688.13;;;-1.95;67.82
22020;BME280;51298;53.362;-1.518;2024-01-15T06:30:40;98699.81;;;-2.05;68.52
22020;BME280;51298;53.362;-1.518;2024-01-15T06:33:13;98705.34;;;-2.11;68.86
22020;BME280;51298;53.362;-1.518;2024-01-15T06:36:00;98714.47;;;-2.07;69.19
22020;BME280;51298;53.362;-1.518;2024-01-15T06:38:34;98717.72;;;-2.05;69.26
22020;BME280;51298;53.362;-1.518;2024-01-15T06:41:22;98727.63;;;-2.13;69.22
22020;BME280;51298;53.362;-1.518;2024-01-15T06:43:56;98729.06;;;-2.09;69.44
22020;BME280;51298;53.362;-1.518;2024-01-15T06:46:46;98732.00;;;-2.15;69.55
22020;BME280;51298;53.362;-1.518;2024-01-15T06:49:19;98724.31;;;-2.15;69.63
22020;BME280;51298;53.362;-1.518;2024-01-15T06:52:14;98723.78;;;-2.06;68.86
22020;BME280;51298;53.362;-1.518;2024-01-15T06:54:50;98724.13;;;-2.12;69.04
22020;BME280;51298;53.362;-1.518;2024-01-15T06:57:37;98734.56;;;-2.15;69.13
22020;BME280;51298;53.362;-1.518;2024-01-15T07:00:16;98722.88;;;-2.19;69.37
22020;BME280;51298;53.362;-1.518;2024-01-15T07:03:03;98719.41;;;-2.18;69.52
22020;BME280;51298;53.362;-1.518;2024-01-15T07:05:37;98728.53;;;-2.29;69.27
22020;BME280;51298;53.362;-1.518;2024-01-15T07:08:24;98723.06;;;-2.23;68.97
22020;BME280;51298;53.362;-1.518;2024-01-15T07:11:03;98721.31;;;-2.22;68.99
22020;BME280;51298;53.362;-1.518;2024-01-15T07:14:01;98727.91;;;-2.32;69.05
22020;BME280;51298;53.362;-1.518;2024-01-15T07:16:37;98738.88;;;-2.30;69.24
22020;BME280;51298;53.362;-1.518;2024-01-15T07:19:24;98750.09;;;-2.33;68.69
22020;BME280;51298;53.362;-1.518;2024-01-15T07:22:01;98751.75;;;-2.32;68.85
22020;BME280;51298;53.362;-1.518;2024-01-15T07:24:51;98750.22;;;-2.34;68.87
22020;BME280;51298;53.362;-1.518;2024-01-15T07:27:23;98749.00;;;-2.29;68.68
22020;BME280;51298;53.362;-1.518;2024-01-15T07:30:13;98751.03;;;-2.34;68.99
22020;BME280;51298;53.362;-1.518;2024-01-15T07:32:52;98750.72;;;-2.43;69.13
22020;BME280;51298;53.362;-1.518;2024-01-15T07:35:37;98761.50;;;-2.38;69.26
22020;BME280;51298;53.362;-1.518;2024-01-15T07:38:10;98758.22;;;-2.40;69.29
22020;BME280;51298;53.362;-1.518;2024-01-15T07:40:57;98762.59;;;-2.42;69.37
22020;BME280;51298;53.362;-1.518;2024-01-15T07:43:30;98772.19;;;-2.46;69.54
22020;BME280;51298;53.362;-1.518;2024-01-15T07:46:18;98779.97;;;-2.48;70.21
22020;BME280;51298;53.362;-1.518;2024-01-15T07:48:50;98781.44;;;-2.43;69.55
22020;BME280;51298;53.362;-1.518;2024-01-15T07:51:36;98789.19;;;-2.45;69.70
22020;BME280;51298;53.362;-1.518;2024-01-15T07:54:09;98787.72;;;-2.49;69.70
22020;BME280;51298;53.362;-1.518;2024-01-15T07:57:00;98790.63;;;-2.55;70.11
22020;BME280;51298;53.362;-1.518;2024-01-15T07:59:35;98779.84;;;-2.46;69.41
22020;BME280;51298;53.362;-1.518;2024-01-15T08:02:21;98786.81;;;-2.48;69.13
22020;BME280;51298;53.362;-1.518;2024-01-15T08:04:54;98792.09;;;-2.51;69.11
22020;BME280;51298;53.362;-1.518;2024-01-15T08:07:40;98781.53;;;-2.45;68.69
22020;BME280;51298;53.362;-1.518;2024-01-15T08:10:13;98781.97;;;-2.53;69.14
22020;BME280;51298;53.362;-1.518;2024-01-15T08:12:59;98780.22;;;-2.52;70.14
22020;BME280;51298;53.362;-1.518;2024-01-15T08:15:32;98784.59;;;-2.54;69.34
22020;BME280;51298;53.362;-1.518;2024-01-15T08:18:17;98787.91;;;-2.52;68.86
22020;BME280;51298;53.362;-1.518;2024-01-15T08:20:51;98793.19;;;-2.55;68.91
22020;BME280;51298;53.362;-1.518;2024-01-15T08:23:37;98787.97;;;-2.54;68.61
22020;BME280;51298;53.362;-1.518;2024-01-15T08:26:10;98791.72;;;-2.59;69.19
22020;BME280;51298;53.362;-1.518;2024-01-15T08:28:56;98796.94;;;-2.61;69.48
22020;BME280;51298;53.362;-1.518;2024-01-15T08:31:29;98802.69;;;-2.57;69.12
22020;BME280;51298;53.362;-1.518;2024-01-15T08:34:16;98804.41;;;-2.58;68.98
22020;BME280;51298;53.362;-1.518;2024-01-15T08:36:49;98814.72;;;-2.59;69.02
22020;BME280;51298;53.362;-1.518;2024-01-15T08:39:36;98823.69;;;-2.52;68.63
22020;BME280;51298;53.362;-1.518;2024-01-15T08:42:10;98825.34;;;-2.51;68.58
22020;BME280;51298;53.362;-1.518;2024-01-15T08:44:56;98833.66;;;-2.48;68.42
22020;BME280;51298;53.362;-1.518;2024-01-15T08:47:29;98840.78;;;-2.53;68.44
22020;BME280;51298;53.362;-1.518;2024-01-15T08:50:14;98843.69;;;-2.59;69.40
22020;BME280;51298;53.362;-1.518;2024-01-15T08:52:47;98850.25;;;-2.55;68.34
22020;BME280;51298;53.362;-1.518;2024-01-15T08:55:34;98837.94;;;-2.48;68.38
22020;BME280;51298;53.362;-1.518;2024-01-15T08:58:07;98854.22;;;-2.49;68.60
22020;BME280;51298;53.362;-1.518;2024-01-15T09:00:54;98850.63;;;-2.47;68.19
22020;BME280;51298;53.362;-1.518;2024-01-15T09:03:27;98860.69;;;-2.43;68.72
22020;BME280;51298;53.362;-1.518;2024-01-15T09:06:13;98854.66;;;-2.42;68.03
22020;BME280;51298;53.362;-1.518;2024-01-15T09:08:46;98852.41;;;-2.33;67.61
22020;BME280;51298;53.362;-1.518;2024-01-15T09:11:32;98852.06;;;-2.27;67.00
22020;BME280;51298;53.362;-1.518;2024-01-15T09:14:07;98852.13;;;-2.28;66.98
22020;BME280;51298;53.362;-1.518;2024-01-15T09:16:53;98851.69;;;-2.21;66.37
22020;BME280;51298;53.362;-1.518;2024-01-15T09:19:28;98845.66;;;-2.19;66.42
22020;BME280;51298;53.362;-1.518;2024-01-15T09:22:15;98847.13;;;-2.15;66.04
22020;BME280;51298;53.362;-1.518;2024-01-15T09:24:50;98839.44;;;-2.15;65.94
22020;BME280;51298;53.362;-1.518;2024-01-15T09:27:36;98849.44;;;-2.11;65.77
22020;BME280;51298;53.362;-1.518;2024-01-15T09:30:09;98840.84;;;-2.10;65.73
22020;BME280;51298;53.362;-1.518;2024-01-15T09:32:56;98851.06;;;-2.10;65.60
22020;BME280;51298;53.362;-1.518;2024-01-15T09:35:29;98845.66;;;-2.05;65.99
22020;BME280;51298;53.362;-1.518;2024-01-15T09:38:15;98853.06;;;-2.01;65.33
22020;BME280;51298;53.362;-1.518;2024-01-15T09:40:48;98853.25;;;-1.89;64.58
22020;BME280;51298;53.362;-1.518;2024-01-15T09:43:33;98849.88;;;-1.90;64.80
22020;BME280;51298;53.362;-1.518;2024-01-15T09:46:06;98857.91;;;-1.82;64.46
22020;BME280;51298;53.362;-1.518;2024-01-15T09:48:52;98849.41;;;-1.54;63.96
22020;BME280;51298;53.362;-1.518;2024-01-15T09:51:28;98856.16;;;-1.11;63.76
22020;BME280;51298;53.362;-1.518;2024-01-15T09:54:16;98856.38;;;-0.75;61.38
22020;BME280;51298;53.362;-1.518;2024-01-15T09:56:54;98868.91;;;-0.70;61.07
22020;BME280;51298;53.362;-1.518;2024-01-15T09:59:43;98870.44;;;-0.67;61.42
22020;BME280;51298;53.362;-1.518;2024-01-15T10:02:17;98865.06;;;-0.90;61.24
22020;BME280;51298;53.362;-1.518;2024-01-15T10:05:03;98866.00;;;-0.78;60.69
22020;BME280;51298;53.362;-1.518;2024-01-15T10:07:37;98865.50;;;-0.83;59.81
22020;BME280;51298;53.362;-1.518;2024-01-15T10:10:23;98875.63;;;-0.82;60.18
22020;BME280;51298;53.362;-1.518;2024-01-15T10:12:58;98868.88;;;-0.83;59.45
22020;BME280;51298;53.362;-1.518;2024-01-15T10:15:46;98870.78;;;-0.99;59.64
22020;BME280;51298;53.362;-1.518;2024-01-15T10:18:22;98871.97;;;-1.05;59.86
22020;BME280;51298;53.362;-1.518;2024-01-15T10:21:09;98882.50;;;-1.09;60.18
22020;BME280;51298;53.362;-1.518;2024-01-15T10:23:42;98895.44;;;-1.11;60.18
22020;BME280;51298;53.362;-1.518;2024-01-15T10:26:29;98897.19;;;-1.11;60.30
22020;BME280;51298;53.362;-1.518;2024-01-15T10:29:02;98892.06;;;-1.11;60.15
22020;BME280;51298;53.362;-1.518;2024-01-15T10:31:49;98898.69;;;-1.09;59.36
22020;BME280;51298;53.362;-1.518;2024-01-15T10:34:22;98884.94;;;-0.93;58.26
22020;BME280;51298;53.362;-1.518;2024-01-15T10:37:08;98885.81;;;-1.07;58.68
22020;BME280;51298;53.362;-1.518;2024-01-15T10:39:41;98901.44;;;-1.12;59.32
22020;BME280;51298;53.362;-1.518;2024-01-15T10:42:27;98902.19;;;-1.10;58.72
22020;BME280;51298;53.362;-1.518;2024-01-15T10:45:01;98911.63;;;-1.10;58.89
22020;BME280;51298;53.362;-1.518;2024-01-15T10:47:47;98912.63;;;-1.13;59.36
22020;BME280;51298;53.362;-1.518;2024-01-15T10:50:22;98916.00;;;-1.12;58.83
22020;BME280;51298;53.362;-1.518;2024-01-15T10:53:09;98904.75;;;-1.10;59.91
22020;BME280;51298;53.362;-1.518;2024-01-15T10:55:46;98920.78;;;-1.06;58.72
22020;BME280;51298;53.362;-1.518;2024-01-15T10:58:34;98920.84;;;-1.08;58.52
22020;BME280;51298;53.362;-1.518;2024-01-15T11:01:07;98923.03;;;-1.02;58.02
22020;BME280;51298;53.362;-1.518;2024-01-15T11:03:54;98926.72;;;-1.06;58.07
22020;BME280;51298;53.362;-1.518;2024-01-15T11:06:42;98924.16;;;-1.06;58.84
22020;BME280;51298;53.362;-1.518;2024-01-15T11:09:16;98926.13;;;-0.96;58.20
22020;BME280;51298;53.362;-1.518;2024-01-15T11:12:10;98926.97;;;-0.96;57.75
22020;BME280;51298;53.362;-1.518;2024-01-15T11:14:48;98929.06;;;-0.88;57.54
22020;BME280;51298;53.362;-1.518;2024-01-15T11:17:58;98921.72;;;-0.80;57.67
22020;BME280;51298;53.362;-1.518;2024-01-15T11:20:31;98929.06;;;-0.88;56.69
22020;BME280;51298;53.362;-1.518;2024-01-15T11:26:33;98923.72;;;-0.85;56.53
22020;BME280;51298;53.362;-1.518;2024-01-15T11:29:31;98916.31;;;-0.90;56.78
22020;BME280;51298;53.362;-1.518;2024-01-15T11:32:08;98919.41;;;-0.85;56.84
22020;BME280;51298;53.362;-1.518;2024-01-15T11:34:59;98908.56;;;-0.88;56.30
22020;BME280;51298;53.362;-1.518;2024-01-15T11:40:38;98912.28;;;-0.80;56.17
22020;BME280;51298;53.362;-1.518;2024-01-15T11:43:10;98907.84;;;-0.78;55.91
22020;BME280;51298;53.362;-1.518;2024-01-15T11:46:02;98902.84;;;-0.79;55.92
22020;BME280;51298;53.362;-1.518;2024-01-15T11:48:42;98901.91;;;-0.78;55.80
22020;BME280;51298;53.362;-1.518;2024-01-15T11:51:28;98903.47;;;-0.76;56.46
22020;BME280;51298;53.362;-1.518;2024-01-15T11:54:03;98901.84;;;-0.64;57.02
22020;BME280;51298;53.362;-1.518;2024-01-15T11:56:53;98908.59;;;-0.76;56.19
22020;BME280;51298;53.362;-1.518;2024-01-15T11:59:26;98907.97;;;-0.79;56.58
22020;BME280;51298;53.362;-1.518;2024-01-15T12:02:13;98900.97;;;-0.77;56.18
22020;BME280;51298;53.362;-1.518;2024-01-15T12:04:46;98902.38;;;-0.86;56.09
22020;BME280;51298;53.362;-1.518;2024-01-15T12:07:32;98904.25;;;-0.88;56.14
22020;BME280;51298;53.362;-1.518;2024-01-15T12:10:14;98911.53;;;-0.82;55.39
22020;BME280;51298;53.362;-1.518;2024-01-15T12:13:05;98919.22;;;-0.82;55.68
22020;BME280;51298;53.362;-1.518;2024-01-15T12:15:54;98902.31;;;-0.84;56.17
22020;BME280;51298;53.362;-1.518;2024-01-15T12:18:42;98890.31;;;-0.84;56.27
22020;BME280;51298;53.362;-1.518;2024-01-15T12:21:16;98899.81;;;-0.86;56.52
22020;BME280;51298;53.362;-1.518;2024-01-15T12:24:07;98880.47;;;-0.77;55.15
22020;BME280;51298;53.362;-1.518;2024-01-15T12:26:40;98888.06;;;-0.76;56.07
22020;BME280;51298;53.362;-1.518;2024-01-15T12:29:30;98890.63;;;-0.76;55.57
22020;BME280;51298;53.362;-1.518;2024-01-15T12:32:04;98894.13;;;-0.77;55.40
22020;BME280;51298;53.362;-1.518;2024-01-15T12:34:50;98899.34;;;-0.78;55.70
22020;BME280;51298;53.362;-1.518;2024-01-15T12:37:24;98889.09;;;-0.78;55.62
22020;BME280;51298;53.362;-1.518;2024-01-15T12:40:10;98906.66;;;-0.72;55.56
22020;BME280;51298;53.362;-1.518;2024-01-15T12:42:43;98900.78;;;-0.74;56.15
22020;BME280;51298;53.362;-1.518;2024-01-15T12:45:30;98894.84;;;-0.75;55.53
22020;BME280;51298;53.362;-1.518;2024-01-15T12:48:06;98900.59;;;-0.71;54.26
22020;BME280;51298;53.362;-1.518;2024-01-15T12:50:55;98891.91;;;-0.68;54.57
22020;BME280;51298;53.362;-1.518;2024-01-15T12:53:31;98905.25;;;-0.63;55.54
22020;BME280;51298;53.362;-1.518;2024-01-15T12:56:16;98908.72;;;-0.64;55.08
22020;BME280;51298;53.362;-1.518;2024-01-15T12:58:49;98906.34;;;-0.67;55.66
22020;BME280;51298;53.362;-1.518;2024-01-15T13:01:35;98911.28;;;-0.64;54.76
22020;BME280;51298;53.362;-1.518;2024-01-15T13:04:08;98907.91;;;-0.65;54.84
22020;BME280;51298;53.362;-1.518;2024-01-15T13:06:54;98915.06;;;-0.70;55.36
22020;BME280;51298;53.362;-1.518;2024-01-15T13:09:27;98911.69;;;-0.70;55.96
22020;BME280;51298;53.362;-1.518;2024-01-15T13:12:13;98911.88;;;-0.74;55.27
22020;BME280;51298;53.362;-1.518;2024-01-15T13:14:47;98914.06;;;-0.67;54.84
22020;BME280;51298;53.362;-1.518;2024-01-15T13:17:32;98909.84;;;-0.68;55.73
22020;BME280;51298;53.362;-1.518;2024-01-15T13:20:06;98909.66;;;-0.65;56.54
22020;BME280;51298;53.362;-1.518;2024-01-15T13:22:52;98907.63;;;-0.60;56.10
22020;BME280;51298;53.362;-1.518;2024-01-15T13:25:25;98911.09;;;-0.61;56.22
22020;BME280;51298;53.362;-1.518;2024-01-15T13:28:15;98906.78;;;-0.61;55.25
22020;BME280;51298;53.362;-1.518;2024-01-15T13:30:48;98903.59;;;-0.64;56.21
22020;BME280;51298;53.362;-1.518;2024-01-15T13:33:33;98913.66;;;-0.61;54.85
22020;BME280;51298;53.362;-1.518;2024-01-15T13:36:07;98911.78;;;-0.72;54.13
22020;BME280;51298;53.362;-1.518;2024-01-15T13:38:54;98905.72;;;-0.71;54.79
22020;BME280;51298;53.362;-1.518;2024-01-15T13:41:27;98910.03;;;-0.71;54.50
22020;BME280;51298;53.362;-1.518;2024-01-15T13:44:15;98901.41;;;-0.70;54.50
22020;BME280;51298;53.362;-1.518;2024-01-15T13:46:47;98912.78;;;-0.75;55.12
22020;BME280;51298;53.362;-1.518;2024-01-15T13:49:33;98912.94;;;-0.63;54.76
22020;BME280;51298;53.362;-1.518;2024-01-15T13:52:06;98915.88;;;-0.69;54.00
22020;BME280;51298;53.362;-1.518;2024-01-15T13:54:51;98901.59;;;-0.74;54.55
22020;BME280;51298;53.362;-1.518;2024-01-15T13:57:24;98906.66;;;-0.72;54.71
22020;BME280;51298;53.362;-1.518;2024-01-15T14:00:11;98896.69;;;-0.77;54.37
22020;BME280;51298;53.362;-1.518;2024-01-15T14:02:45;98911.88;;;-0.74;54.66
22020;BME280;51298;53.362;-1.518;2024-01-15T14:05:35;98912.78;;;-0.75;54.09